createdAt,value
2023-12-24T00:00:39.919Z,9.70
2023-12-24T00:02:11.799Z,9.80
2023-12-24T00:03:43.779Z,9.80
2023-12-24T00:05:15.697Z,9.80
2023-12-24T00:06:47.508Z,9.80
2023-12-24T00:08:19.317Z,9.70
2023-12-24T00:09:51.194Z,9.70
2023-12-24T00:11:23.003Z,9.70
2023-12-24T00:12:54.768Z,9.80
2023-12-24T00:14:26.570Z,9.80
2023-12-24T00:15:58.471Z,9.80
2023-12-24T00:17:30.668Z,9.80
2023-12-24T00:19:05.019Z,9.80
2023-12-24T00:20:37.165Z,9.80
2023-12-24T00:22:08.976Z,9.80
2023-12-24T00:23:41.058Z,9.80
2023-12-24T00:25:12.800Z,9.80
2023-12-24T00:26:44.622Z,9.80
2023-12-24T00:28:16.419Z,9.80
2023-12-24T00:29:48.138Z,9.80
2023-12-24T00:31:19.919Z,9.80
2023-12-24T00:32:52.018Z,9.80
2023-12-24T00:34:23.965Z,9.80
2023-12-24T00:35:55.796Z,9.80
2023-12-24T00:37:27.506Z,9.80
2023-12-24T00:38:59.435Z,9.80
2023-12-24T00:40:31.879Z,9.80
2023-12-24T00:42:03.763Z,9.80
2023-12-24T00:43:35.726Z,9.80
2023-12-24T00:45:09.345Z,9.80
2023-12-24T00:46:42.365Z,9.80
2023-12-24T00:48:14.459Z,9.80
2023-12-24T00:49:46.261Z,9.80
2023-12-24T00:51:18.039Z,9.80
2023-12-24T00:52:51.156Z,9.80
2023-12-24T00:54:23.162Z,9.80
2023-12-24T00:55:54.932Z,9.80
2023-12-24T00:57:26.742Z,9.80
2023-12-24T00:58:58.503Z,9.80
2023-12-24T01:00:30.273Z,9.80
2023-12-24T01:02:02.879Z,9.80
2023-12-24T01:03:34.804Z,9.80
2023-12-24T01:05:07.807Z,9.80
2023-12-24T01:06:39.568Z,9.80
2023-12-24T01:08:11.439Z,9.80
2023-12-24T01:09:43.260Z,9.80
2023-12-24T01:11:15.104Z,9.80
2023-12-24T01:12:46.844Z,9.80
2023-12-24T01:14:18.638Z,9.80
2023-12-24T01:15:50.458Z,9.80
2023-12-24T01:17:22.328Z,9.80
2023-12-24T01:18:54.220Z,9.80
2023-12-24T01:20:26.084Z,9.80
2023-12-24T01:21:58.051Z,9.80
2023-12-24T01:23:29.855Z,9.90
2023-12-24T01:25:01.816Z,9.80
2023-12-24T01:26:36.000Z,9.80
2023-12-24T01:28:07.893Z,9.80
2023-12-24T01:29:39.731Z,9.80
2023-12-24T01:31:11.556Z,9.80
2023-12-24T01:32:43.511Z,9.80
2023-12-24T01:34:15.956Z,9.90
2023-12-24T01:35:48.261Z,9.80
2023-12-24T01:37:20.956Z,9.80
2023-12-24T01:38:52.803Z,9.90
2023-12-24T01:40:24.581Z,9.80
2023-12-24T01:41:56.318Z,9.80
2023-12-24T01:43:28.099Z,9.80
2023-12-24T01:44:59.813Z,9.80
2023-12-24T01:46:32.673Z,9.90
2023-12-24T01:48:05.017Z,9.90
2023-12-24T01:49:37.248Z,9.90
2023-12-24T01:51:10.463Z,9.80
2023-12-24T01:52:42.799Z,9.90
2023-12-24T01:54:19.522Z,9.90
2023-12-24T01:55:52.169Z,9.80
2023-12-24T01:57:24.284Z,9.80
2023-12-24T01:58:56.554Z,9.90
2023-12-24T02:00:28.362Z,9.80
2023-12-24T02:02:00.342Z,9.90
2023-12-24T02:03:32.217Z,9.90
2023-12-24T02:05:04.477Z,9.90
2023-12-24T02:06:37.607Z,9.80
2023-12-24T02:08:13.993Z,9.80
2023-12-24T02:09:45.809Z,9.90
2023-12-24T02:11:17.816Z,9.90
2023-12-24T02:12:51.287Z,9.90
2023-12-24T02:14:23.418Z,9.90
2023-12-24T02:15:58.619Z,9.90
2023-12-24T02:17:31.984Z,9.80
2023-12-24T02:19:05.585Z,9.90
2023-12-24T02:20:37.845Z,9.90
2023-12-24T02:22:09.658Z,9.80
2023-12-24T02:23:42.266Z,9.80
2023-12-24T02:25:14.078Z,9.90
2023-12-24T02:27:05.642Z,9.90
2023-12-24T02:28:45.705Z,9.90
2023-12-24T02:30:24.272Z,9.90
2023-12-24T02:32:10.799Z,9.90
2023-12-24T02:33:44.302Z,9.90
2023-12-24T02:35:16.934Z,9.90
2023-12-24T02:36:49.930Z,9.90
2023-12-24T02:38:21.742Z,9.90
2023-12-24T02:39:53.525Z,9.90
2023-12-24T02:41:25.850Z,9.90
2023-12-24T02:42:57.687Z,9.90
2023-12-24T02:44:30.760Z,9.90
2023-12-24T02:46:04.057Z,9.90
2023-12-24T02:47:38.204Z,9.90
2023-12-24T02:49:10.190Z,9.90
2023-12-24T02:50:41.963Z,9.90
2023-12-24T02:52:13.970Z,9.90
2023-12-24T02:53:45.879Z,9.90
2023-12-24T02:55:17.708Z,9.90
2023-12-24T02:56:49.468Z,9.90
2023-12-24T02:58:21.218Z,9.90
2023-12-24T02:59:53.295Z,9.90
2023-12-24T03:01:25.116Z,9.90
2023-12-24T03:02:57.270Z,9.90
2023-12-24T03:04:29.336Z,9.90
2023-12-24T03:06:01.162Z,9.90
2023-12-24T03:07:32.966Z,9.90
2023-12-24T03:09:04.799Z,9.90
2023-12-24T03:10:36.665Z,9.90
2023-12-24T03:12:08.628Z,9.90
2023-12-24T03:13:40.378Z,9.90
2023-12-24T03:15:12.811Z,9.90
2023-12-24T03:16:44.573Z,9.90
2023-12-24T03:18:16.442Z,10.00
2023-12-24T03:19:48.351Z,10.00
2023-12-24T03:21:20.239Z,10.00
2023-12-24T03:22:52.934Z,10.00
2023-12-24T03:24:26.404Z,10.00
2023-12-24T03:25:58.227Z,9.90
2023-12-24T03:27:29.966Z,9.90
2023-12-24T03:29:01.901Z,10.00
2023-12-24T03:30:33.706Z,10.00
2023-12-24T03:32:07.236Z,9.90
2023-12-24T03:33:39.336Z,9.90
2023-12-24T03:35:11.257Z,10.00
2023-12-24T03:36:43.033Z,10.00
2023-12-24T03:38:14.786Z,10.00
2023-12-24T03:39:46.572Z,10.00
2023-12-24T03:41:18.451Z,9.90
2023-12-24T03:42:50.560Z,10.00
2023-12-24T03:44:22.534Z,10.00
2023-12-24T03:45:54.640Z,10.00
2023-12-24T03:47:26.472Z,10.00
2023-12-24T03:48:58.322Z,10.00
2023-12-24T03:50:30.700Z,10.00
2023-12-24T03:52:02.604Z,10.00
2023-12-24T03:53:34.444Z,10.00
2023-12-24T03:55:06.588Z,10.00
2023-12-24T03:56:38.451Z,10.00
2023-12-24T03:58:10.234Z,10.00
2023-12-24T03:59:42.134Z,10.00
2023-12-24T04:01:14.097Z,10.00
2023-12-24T04:02:45.970Z,10.00
2023-12-24T04:04:17.758Z,10.00
2023-12-24T04:05:50.301Z,10.00
2023-12-24T04:07:22.206Z,10.00
2023-12-24T04:08:53.957Z,10.00
2023-12-24T04:10:25.715Z,10.00
2023-12-24T04:11:57.820Z,10.00
2023-12-24T04:13:29.534Z,10.00
2023-12-24T04:15:01.295Z,10.00
2023-12-24T04:16:33.030Z,10.00
2023-12-24T04:18:05.247Z,10.00
2023-12-24T04:19:37.265Z,10.00
2023-12-24T04:21:09.102Z,10.00
2023-12-24T04:22:40.912Z,10.00
2023-12-24T04:24:12.730Z,10.00
2023-12-24T04:25:44.487Z,10.00
2023-12-24T04:27:16.345Z,10.00
2023-12-24T04:28:48.231Z,10.00
2023-12-24T04:30:20.193Z,10.00
2023-12-24T04:31:51.973Z,10.00
2023-12-24T04:33:23.882Z,10.00
2023-12-24T04:34:56.336Z,10.00
2023-12-24T04:36:28.055Z,10.00
2023-12-24T04:38:00.785Z,10.00
2023-12-24T04:39:33.247Z,10.00
2023-12-24T04:41:05.187Z,10.00
2023-12-24T04:42:37.206Z,10.00
2023-12-24T04:44:09.160Z,10.00
2023-12-24T04:45:41.017Z,10.00
2023-12-24T04:47:12.881Z,10.00
2023-12-24T04:48:44.850Z,10.00
2023-12-24T04:50:22.262Z,10.00
2023-12-24T04:51:54.994Z,10.00
2023-12-24T04:53:26.832Z,10.00
2023-12-24T04:54:58.745Z,10.00
2023-12-24T04:56:32.400Z,10.00
2023-12-24T04:58:04.356Z,10.00
2023-12-24T04:59:36.287Z,10.00
2023-12-24T05:01:08.213Z,10.00
2023-12-24T05:02:40.063Z,10.10
2023-12-24T05:04:11.904Z,10.00
2023-12-24T05:05:44.670Z,10.10
2023-12-24T05:07:16.702Z,10.10
2023-12-24T05:08:48.921Z,10.00
2023-12-24T05:10:21.202Z,10.10
2023-12-24T05:11:52.964Z,10.10
2023-12-24T05:13:24.766Z,10.10
2023-12-24T05:14:56.482Z,10.00
2023-12-24T05:16:28.480Z,10.00
2023-12-24T05:18:00.373Z,10.10
2023-12-24T05:19:32.331Z,10.00
2023-12-24T05:21:04.596Z,10.10
2023-12-24T05:22:36.326Z,10.10
2023-12-24T05:24:08.143Z,10.00
2023-12-24T05:25:39.930Z,10.10
2023-12-24T05:27:11.642Z,10.10
2023-12-24T05:28:44.032Z,10.10
2023-12-24T05:30:15.889Z,10.10
2023-12-24T05:31:47.673Z,10.10
2023-12-24T05:33:19.549Z,10.10
2023-12-24T05:34:51.442Z,10.10
2023-12-24T05:36:23.219Z,10.10
2023-12-24T05:37:54.982Z,10.10
2023-12-24T05:39:26.697Z,10.10
2023-12-24T05:40:58.476Z,10.00
2023-12-24T05:42:30.462Z,10.10
2023-12-24T05:44:02.562Z,10.10
2023-12-24T05:45:36.291Z,10.10
2023-12-24T05:47:08.137Z,10.10
2023-12-24T05:48:40.328Z,10.10
2023-12-24T05:50:12.148Z,10.10
2023-12-24T05:51:44.042Z,10.10
2023-12-24T05:53:15.878Z,10.10
2023-12-24T05:54:47.632Z,10.10
2023-12-24T05:56:19.420Z,10.10
2023-12-24T05:57:51.151Z,10.10
2023-12-24T05:59:25.933Z,10.10
2023-12-24T06:00:57.834Z,10.10
2023-12-24T06:02:29.670Z,10.10
2023-12-24T06:04:01.481Z,10.10
2023-12-24T06:05:33.277Z,10.10
2023-12-24T06:07:05.682Z,10.10
2023-12-24T06:08:37.480Z,10.10
2023-12-24T06:10:09.594Z,10.10
2023-12-24T06:11:41.460Z,10.10
2023-12-24T06:13:13.663Z,10.10
2023-12-24T06:14:45.513Z,10.10
2023-12-24T06:16:17.285Z,10.10
2023-12-24T06:17:49.329Z,10.10
2023-12-24T06:19:21.318Z,10.10
2023-12-24T06:20:53.286Z,10.10
2023-12-24T06:22:25.108Z,10.10
2023-12-24T06:23:57.043Z,10.10
2023-12-24T06:25:28.874Z,10.20
2023-12-24T06:27:00.583Z,10.10
2023-12-24T06:28:32.323Z,10.10
2023-12-24T06:30:04.895Z,10.10
2023-12-24T06:31:36.753Z,10.10
2023-12-24T06:33:09.164Z,10.10
2023-12-24T06:34:41.361Z,10.10
2023-12-24T06:36:13.108Z,10.10
2023-12-24T06:37:44.828Z,10.10
2023-12-24T06:39:16.645Z,10.10
2023-12-24T06:40:48.440Z,10.10
2023-12-24T06:42:20.178Z,10.10
2023-12-24T06:43:51.958Z,10.10
2023-12-24T06:45:23.694Z,10.10
2023-12-24T06:46:55.797Z,10.10
2023-12-24T06:48:27.635Z,10.10
2023-12-24T06:49:59.597Z,10.10
2023-12-24T06:51:31.353Z,10.10
2023-12-24T06:53:03.270Z,10.10
2023-12-24T06:54:35.080Z,10.10
2023-12-24T06:56:07.023Z,10.10
2023-12-24T06:57:38.941Z,10.10
2023-12-24T06:59:11.071Z,10.10
2023-12-24T07:00:42.973Z,10.20
2023-12-24T07:02:14.777Z,10.20
2023-12-24T07:03:46.619Z,10.10
2023-12-24T07:05:18.502Z,10.10
2023-12-24T07:06:50.341Z,10.10
2023-12-24T07:08:23.352Z,10.10
2023-12-24T07:09:55.265Z,10.10
2023-12-24T07:11:27.070Z,10.10
2023-12-24T07:12:58.955Z,10.10
2023-12-24T07:14:30.789Z,10.10
2023-12-24T07:16:02.656Z,10.10
2023-12-24T07:17:34.685Z,10.10
2023-12-24T07:19:09.038Z,10.10
2023-12-24T07:20:40.866Z,10.10
2023-12-24T07:22:12.684Z,10.20
2023-12-24T07:23:44.526Z,10.10
2023-12-24T07:25:16.383Z,10.20
2023-12-24T07:26:48.206Z,10.10
2023-12-24T07:28:20.224Z,10.10
2023-12-24T07:29:52.508Z,10.20
2023-12-24T07:31:25.101Z,10.20
2023-12-24T07:32:57.594Z,10.20
2023-12-24T07:34:31.862Z,10.10
2023-12-24T07:36:04.094Z,10.20
2023-12-24T07:37:35.802Z,10.10
2023-12-24T07:39:07.683Z,10.20
2023-12-24T07:40:39.421Z,10.20
2023-12-24T07:42:11.185Z,10.20
2023-12-24T07:43:43.283Z,10.20
2023-12-24T07:45:15.686Z,10.10
2023-12-24T07:46:47.605Z,10.10
2023-12-24T07:48:19.654Z,10.10
2023-12-24T07:49:51.735Z,10.20
2023-12-24T07:51:23.737Z,10.20
2023-12-24T07:52:56.135Z,10.20
2023-12-24T07:54:27.948Z,10.20
2023-12-24T07:55:59.716Z,10.20
2023-12-24T07:57:31.488Z,10.20
2023-12-24T07:59:03.723Z,10.20
2023-12-24T08:00:36.148Z,10.20
2023-12-24T08:02:08.014Z,10.20
2023-12-24T08:03:39.835Z,10.20
2023-12-24T08:05:12.289Z,10.20
2023-12-24T08:06:44.571Z,10.20
2023-12-24T08:08:16.554Z,10.20
2023-12-24T08:09:48.743Z,10.20
2023-12-24T08:11:20.943Z,10.20
2023-12-24T08:12:59.413Z,10.20
2023-12-24T08:14:36.908Z,10.20
2023-12-24T08:16:08.964Z,10.20
2023-12-24T08:17:43.708Z,10.20
2023-12-24T08:19:15.616Z,10.20
2023-12-24T08:20:47.543Z,10.20
2023-12-24T08:22:19.968Z,10.20
2023-12-24T08:23:52.425Z,10.20
2023-12-24T08:25:25.074Z,10.20
2023-12-24T08:26:56.994Z,10.20
2023-12-24T08:28:28.730Z,10.30
2023-12-24T08:30:00.784Z,10.20
2023-12-24T08:31:33.006Z,10.20
2023-12-24T08:33:05.256Z,10.20
2023-12-24T08:34:37.295Z,10.20
2023-12-24T08:36:09.488Z,10.20
2023-12-24T08:37:42.163Z,10.20
2023-12-24T08:39:14.509Z,10.20
2023-12-24T08:40:46.280Z,10.20
2023-12-24T08:42:18.061Z,10.30
2023-12-24T08:43:49.800Z,10.30
2023-12-24T08:45:23.535Z,10.20
2023-12-24T08:46:55.248Z,10.20
2023-12-24T08:48:27.762Z,10.30
2023-12-24T08:49:59.843Z,10.30
2023-12-24T08:51:31.572Z,10.30
2023-12-24T08:53:03.759Z,10.30
2023-12-24T08:54:36.216Z,10.30
2023-12-24T08:56:08.120Z,10.30
2023-12-24T08:57:40.549Z,10.30
2023-12-24T08:59:12.550Z,10.30
2023-12-24T09:00:44.614Z,10.30
2023-12-24T09:02:16.621Z,10.30
2023-12-24T09:03:48.451Z,10.30
2023-12-24T09:05:20.523Z,10.30
2023-12-24T09:06:52.441Z,10.30
2023-12-24T09:08:24.242Z,10.30
2023-12-24T09:09:56.033Z,10.30
2023-12-24T09:11:27.935Z,10.30
2023-12-24T09:13:00.162Z,10.30
2023-12-24T09:14:31.992Z,10.30
2023-12-24T09:16:04.632Z,10.30
2023-12-24T09:17:36.816Z,10.30
2023-12-24T09:19:09.005Z,10.30
2023-12-24T09:20:41.191Z,10.30
2023-12-24T09:22:13.052Z,10.30
2023-12-24T09:23:44.847Z,10.30
2023-12-24T09:25:16.647Z,10.30
2023-12-24T09:26:48.491Z,10.40
2023-12-24T09:28:20.309Z,10.30
2023-12-24T09:29:52.323Z,10.40
2023-12-24T09:31:24.512Z,10.30
2023-12-24T09:32:57.208Z,10.30
2023-12-24T09:34:30.562Z,10.30
2023-12-24T09:36:08.268Z,10.30
2023-12-24T09:37:40.079Z,10.30
2023-12-24T09:39:12.172Z,10.30
2023-12-24T09:40:43.994Z,10.30
2023-12-24T09:42:16.000Z,10.40
2023-12-24T09:43:47.769Z,10.30
2023-12-24T09:45:22.799Z,10.30
2023-12-24T09:46:55.068Z,10.30
2023-12-24T09:48:27.119Z,10.40
2023-12-24T09:50:24.117Z,10.40
2023-12-24T09:58:31.243Z,10.40
2023-12-24T10:00:05.361Z,10.40
2023-12-24T10:01:45.992Z,10.40
2023-12-24T10:03:17.779Z,10.40
2023-12-24T10:04:49.639Z,10.40
2023-12-24T10:06:22.318Z,10.40
2023-12-24T10:07:54.105Z,10.40
2023-12-24T10:09:44.194Z,10.40
2023-12-24T10:11:24.289Z,10.40
2023-12-24T10:13:06.602Z,10.40
2023-12-24T10:14:40.423Z,10.40
2023-12-24T10:16:15.293Z,10.40
2023-12-24T10:17:47.800Z,10.40
2023-12-24T10:19:26.892Z,10.40
2023-12-24T10:21:07.116Z,10.50
2023-12-24T10:22:39.381Z,10.40
2023-12-24T10:24:11.125Z,10.40
2023-12-24T10:25:42.873Z,10.40
2023-12-24T10:27:16.971Z,10.40
2023-12-24T10:28:57.906Z,10.40
2023-12-24T10:30:33.455Z,10.40
2023-12-24T10:32:05.947Z,10.40
2023-12-24T10:33:41.865Z,10.40
2023-12-24T10:35:23.724Z,10.40
2023-12-24T10:36:56.894Z,10.40
2023-12-24T10:38:28.733Z,10.40
2023-12-24T10:40:11.449Z,10.40
2023-12-24T10:41:43.655Z,10.50
2023-12-24T10:43:15.382Z,10.40
2023-12-24T10:44:47.254Z,10.50
2023-12-24T10:46:19.032Z,10.50
2023-12-24T10:47:50.861Z,10.50
2023-12-24T10:49:22.803Z,10.50
2023-12-24T10:50:55.898Z,10.50
2023-12-24T10:52:27.676Z,10.50
2023-12-24T10:53:59.931Z,10.50
2023-12-24T10:55:34.187Z,10.50
2023-12-24T10:57:33.517Z,10.50
2023-12-24T10:59:18.618Z,10.50
2023-12-24T11:00:50.575Z,10.50
2023-12-24T11:02:22.818Z,10.50
2023-12-24T11:03:54.871Z,10.50
2023-12-24T11:05:43.605Z,10.50
2023-12-24T11:07:33.616Z,10.50
2023-12-24T11:09:25.592Z,10.50
2023-12-24T11:11:11.545Z,10.50
2023-12-24T11:12:43.429Z,10.50
2023-12-24T11:14:39.807Z,10.50
2023-12-24T11:16:12.068Z,10.50
2023-12-24T11:17:50.866Z,10.50
2023-12-24T11:19:24.279Z,10.60
2023-12-24T11:20:59.641Z,10.50
2023-12-24T11:22:31.392Z,10.50
2023-12-24T11:24:13.153Z,10.50
2023-12-24T11:25:47.305Z,10.50
2023-12-24T11:27:19.238Z,10.50
2023-12-24T11:28:51.051Z,10.50
2023-12-24T11:30:23.482Z,10.60
2023-12-24T11:31:55.365Z,10.50
2023-12-24T11:33:30.072Z,10.50
2023-12-24T11:35:03.844Z,10.60
2023-12-24T11:36:35.764Z,10.60
2023-12-24T11:38:36.450Z,10.60
2023-12-24T11:40:19.939Z,10.60
2023-12-24T11:41:53.781Z,10.60
2023-12-24T11:43:25.639Z,10.60
2023-12-24T11:44:57.566Z,10.60
2023-12-24T11:46:31.181Z,10.60
2023-12-24T11:48:04.353Z,10.60
2023-12-24T11:49:36.355Z,10.60
2023-12-24T11:51:12.551Z,10.60
2023-12-24T11:52:45.342Z,10.60
2023-12-24T11:54:21.046Z,10.60
2023-12-24T11:56:13.750Z,10.60
2023-12-24T11:57:46.840Z,10.60
2023-12-24T11:59:19.089Z,10.60
2023-12-24T12:00:50.972Z,10.60
2023-12-24T12:02:22.779Z,10.60
2023-12-24T12:03:58.861Z,10.60
2023-12-24T12:05:31.372Z,10.60
2023-12-24T12:07:03.645Z,10.60
2023-12-24T12:08:35.440Z,10.60
2023-12-24T12:10:07.996Z,10.60
2023-12-24T12:11:42.256Z,10.60
2023-12-24T12:13:14.019Z,10.60
2023-12-24T12:14:45.792Z,10.60
2023-12-24T12:16:17.648Z,10.60
2023-12-24T12:17:51.364Z,10.60
2023-12-24T12:19:23.681Z,10.60
2023-12-24T12:20:55.486Z,10.60
2023-12-24T12:22:27.284Z,10.60
2023-12-24T12:23:59.012Z,10.60
2023-12-24T12:25:30.744Z,10.60
2023-12-24T12:27:02.534Z,10.60
2023-12-24T12:28:38.202Z,10.60
2023-12-24T12:30:10.441Z,10.60
2023-12-24T12:31:42.313Z,10.60
2023-12-24T12:33:14.203Z,10.60
2023-12-24T12:34:46.189Z,10.70
2023-12-24T12:36:18.285Z,10.70
2023-12-24T12:37:50.170Z,10.70
2023-12-24T12:39:22.252Z,10.70
2023-12-24T12:40:54.149Z,10.70
2023-12-24T12:42:35.546Z,10.70
2023-12-24T12:44:14.491Z,10.70
2023-12-24T12:45:46.333Z,10.70
2023-12-24T12:47:18.295Z,10.70
2023-12-24T12:48:50.261Z,10.70
2023-12-24T12:50:22.214Z,10.70
2023-12-24T12:51:54.392Z,10.70
2023-12-24T12:53:27.336Z,10.70
2023-12-24T12:55:07.506Z,10.70
2023-12-24T12:56:44.575Z,10.70
2023-12-24T12:58:16.341Z,10.70
2023-12-24T12:59:48.140Z,10.70
2023-12-24T13:01:20.267Z,10.70
2023-12-24T13:02:52.543Z,10.70
2023-12-24T13:04:31.429Z,10.70
2023-12-24T13:06:12.881Z,10.70
2023-12-24T13:07:44.884Z,10.70
2023-12-24T13:09:16.667Z,10.70
2023-12-24T13:10:48.443Z,10.70
2023-12-24T13:12:20.993Z,10.70
2023-12-24T13:14:04.306Z,10.70
2023-12-24T13:15:39.314Z,10.70
2023-12-24T13:17:12.190Z,10.80
2023-12-24T13:18:44.085Z,10.70
2023-12-24T13:20:15.971Z,10.70
2023-12-24T13:21:50.236Z,10.80
2023-12-24T13:23:24.697Z,10.70
2023-12-24T13:24:58.385Z,10.70
2023-12-24T13:26:30.171Z,10.70
2023-12-24T13:28:02.811Z,10.70
2023-12-24T13:29:36.359Z,10.70
2023-12-24T13:31:08.183Z,10.70
2023-12-24T13:32:40.098Z,10.80
2023-12-24T13:34:15.800Z,10.80
2023-12-24T13:35:48.071Z,10.80
2023-12-24T13:37:19.944Z,10.80
2023-12-24T13:38:51.740Z,10.80
2023-12-24T13:40:24.357Z,10.70
2023-12-24T13:41:57.134Z,10.80
2023-12-24T13:43:28.867Z,10.80
2023-12-24T13:45:00.672Z,10.80
2023-12-24T13:46:32.429Z,10.80
2023-12-24T13:48:05.455Z,10.80
2023-12-24T13:49:37.355Z,10.80
2023-12-24T13:51:09.170Z,10.80
2023-12-24T13:52:40.952Z,10.80
2023-12-24T13:54:12.847Z,10.80
2023-12-24T13:55:44.576Z,10.80
2023-12-24T13:57:16.359Z,10.80
2023-12-24T13:58:48.083Z,10.80
2023-12-24T14:00:20.777Z,10.80
2023-12-24T14:01:53.034Z,10.80
2023-12-24T14:03:28.388Z,10.80
2023-12-24T14:05:00.615Z,10.80
2023-12-24T14:06:32.387Z,10.80
2023-12-24T14:08:04.732Z,10.80
2023-12-24T14:09:36.447Z,10.80
2023-12-24T14:11:09.889Z,10.80
2023-12-24T14:12:42.872Z,10.80
2023-12-24T14:14:14.639Z,10.80
2023-12-24T14:15:47.338Z,10.80
2023-12-24T14:17:19.145Z,10.80
2023-12-24T14:18:55.004Z,10.80
2023-12-24T14:20:26.915Z,10.80
2023-12-24T14:21:58.709Z,10.80
2023-12-24T14:23:30.502Z,10.80
2023-12-24T14:25:05.546Z,10.90
2023-12-24T14:26:38.810Z,10.90
2023-12-24T14:28:10.630Z,10.80
2023-12-24T14:29:42.359Z,10.90
2023-12-24T14:31:16.171Z,10.90
2023-12-24T14:32:48.101Z,10.90
2023-12-24T14:34:19.901Z,10.90
2023-12-24T14:35:51.765Z,10.90
2023-12-24T14:37:23.581Z,10.90
2023-12-24T14:38:55.545Z,10.90
2023-12-24T14:40:28.504Z,10.90
2023-12-24T14:42:00.255Z,10.90
2023-12-24T14:43:32.096Z,10.90
2023-12-24T14:45:04.943Z,10.90
2023-12-24T14:46:39.591Z,11.00
2023-12-24T14:48:11.633Z,10.90
2023-12-24T14:49:43.462Z,10.90
2023-12-24T14:51:17.485Z,10.90
2023-12-24T14:52:49.506Z,10.90
2023-12-24T14:54:21.291Z,10.90
2023-12-24T14:55:53.339Z,10.90
2023-12-24T14:57:26.985Z,11.00
2023-12-24T14:59:01.545Z,10.90
2023-12-24T15:00:33.328Z,10.90
2023-12-24T15:02:05.205Z,10.90
2023-12-24T15:03:38.563Z,10.90
2023-12-24T15:05:11.124Z,10.90
2023-12-24T15:06:42.894Z,10.90
2023-12-24T15:08:14.671Z,10.90
2023-12-24T15:09:46.686Z,10.90
2023-12-24T15:11:20.662Z,10.90
2023-12-24T15:12:52.651Z,10.90
2023-12-24T15:14:24.547Z,10.90
2023-12-24T15:15:56.349Z,11.00
2023-12-24T15:17:29.157Z,10.90
2023-12-24T15:19:01.576Z,11.00
2023-12-24T15:20:33.681Z,11.00
2023-12-24T15:22:05.546Z,11.00
2023-12-24T15:23:37.355Z,11.00
2023-12-24T15:25:09.302Z,11.00
2023-12-24T15:26:44.267Z,11.00
2023-12-24T15:28:16.194Z,11.00
2023-12-24T15:29:47.935Z,11.00
2023-12-24T15:31:20.437Z,11.00
2023-12-24T15:32:55.775Z,11.00
2023-12-24T15:34:27.829Z,11.00
2023-12-24T15:35:59.595Z,11.00
2023-12-24T15:37:31.340Z,11.00
2023-12-24T15:39:04.510Z,11.00
2023-12-24T15:40:36.894Z,11.00
2023-12-24T15:42:08.674Z,11.00
2023-12-24T15:43:45.861Z,11.00
2023-12-24T15:45:17.685Z,11.00
2023-12-24T15:46:49.514Z,11.00
2023-12-24T15:48:21.946Z,11.00
2023-12-24T15:49:54.201Z,11.10
2023-12-24T15:51:25.994Z,11.00
2023-12-24T15:52:57.811Z,11.00
2023-12-24T15:54:29.936Z,11.00
2023-12-24T15:56:02.361Z,11.00
2023-12-24T15:57:36.616Z,11.00
2023-12-24T15:59:09.479Z,11.00
2023-12-24T16:00:42.320Z,11.00
2023-12-24T16:02:14.311Z,11.00
2023-12-24T16:03:46.154Z,11.00
2023-12-24T16:05:18.035Z,11.00
2023-12-24T16:06:49.857Z,11.00
2023-12-24T16:08:21.715Z,11.00
2023-12-24T16:09:53.482Z,11.10
2023-12-24T16:11:25.282Z,11.00
2023-12-24T16:12:57.581Z,11.00
2023-12-24T16:14:29.314Z,11.10
2023-12-24T16:16:01.076Z,11.10
2023-12-24T16:17:32.898Z,11.10
2023-12-24T16:19:05.213Z,11.10
2023-12-24T16:20:37.204Z,11.10
2023-12-24T16:22:08.992Z,11.10
2023-12-24T16:23:40.848Z,11.10
2023-12-24T16:25:12.646Z,11.10
2023-12-24T16:26:44.879Z,11.10
2023-12-24T16:28:16.758Z,11.10
2023-12-24T16:29:48.504Z,11.10
2023-12-24T16:31:20.722Z,11.10
2023-12-24T16:32:52.812Z,11.10
2023-12-24T16:34:24.769Z,11.10
2023-12-24T16:35:56.601Z,11.10
2023-12-24T16:37:28.429Z,11.10
2023-12-24T16:39:00.437Z,11.10
2023-12-24T16:40:32.378Z,11.10
2023-12-24T16:42:04.285Z,11.10
2023-12-24T16:43:36.068Z,11.10
2023-12-24T16:45:08.963Z,11.10
2023-12-24T16:46:41.735Z,11.10
2023-12-24T16:48:13.625Z,11.10
2023-12-24T16:49:46.036Z,11.10
2023-12-24T16:51:18.986Z,11.10
2023-12-24T16:52:51.103Z,11.10
2023-12-24T16:54:23.046Z,11.10
2023-12-24T16:55:58.935Z,11.10
2023-12-24T16:57:31.450Z,11.10
2023-12-24T16:59:04.202Z,11.10
2023-12-24T17:00:35.954Z,11.10
2023-12-24T17:02:07.798Z,11.10
2023-12-24T17:03:39.743Z,11.10
2023-12-24T17:05:11.784Z,11.10
2023-12-24T17:06:43.966Z,11.20
2023-12-24T17:08:15.719Z,11.20
2023-12-24T17:09:50.862Z,11.20
2023-12-24T17:11:23.161Z,11.20
2023-12-24T17:12:55.141Z,11.10
2023-12-24T17:14:27.015Z,11.20
2023-12-24T17:16:00.044Z,11.20
2023-12-24T17:17:31.984Z,11.20
2023-12-24T17:19:04.007Z,11.20
2023-12-24T17:20:35.838Z,11.20
2023-12-24T17:22:07.579Z,11.20
2023-12-24T17:23:39.366Z,11.20
2023-12-24T17:25:11.099Z,11.20
2023-12-24T17:26:42.936Z,11.20
2023-12-24T17:28:14.697Z,11.20
2023-12-24T17:29:46.556Z,11.20
2023-12-24T17:31:18.471Z,11.20
2023-12-24T17:32:50.573Z,11.20
2023-12-24T17:34:22.683Z,11.20
2023-12-24T17:35:54.554Z,11.20
2023-12-24T17:37:26.315Z,11.20
2023-12-24T17:38:58.068Z,11.20
2023-12-24T17:40:29.821Z,11.20
2023-12-24T17:42:02.323Z,11.20
2023-12-24T17:43:34.148Z,11.20
2023-12-24T17:45:06.389Z,11.20
2023-12-24T17:46:38.077Z,11.20
2023-12-24T17:48:17.178Z,11.30
2023-12-24T17:49:52.152Z,11.20
2023-12-24T17:51:23.986Z,11.20
2023-12-24T17:52:57.586Z,11.20
2023-12-24T17:54:29.395Z,11.20
2023-12-24T17:56:01.158Z,11.20
2023-12-24T17:57:32.933Z,11.20
2023-12-24T17:59:04.693Z,11.20
2023-12-24T18:00:36.487Z,11.20
2023-12-24T18:02:11.243Z,11.20
2023-12-24T18:03:43.088Z,11.20
2023-12-24T18:05:15.008Z,11.20
2023-12-24T18:06:47.018Z,11.20
2023-12-24T18:08:20.836Z,11.20
2023-12-24T18:09:52.601Z,11.20
2023-12-24T18:11:24.415Z,11.20
2023-12-24T18:12:56.199Z,11.20
2023-12-24T18:14:27.978Z,11.20
2023-12-24T18:15:59.714Z,11.30
2023-12-24T18:17:31.672Z,11.20
2023-12-24T18:19:05.415Z,11.20
2023-12-24T18:20:37.261Z,11.30
2023-12-24T18:22:09.008Z,11.30
2023-12-24T18:23:41.202Z,11.30
2023-12-24T18:25:12.989Z,11.20
2023-12-24T18:26:44.784Z,11.30
2023-12-24T18:28:16.507Z,11.30
2023-12-24T18:29:48.310Z,11.20
2023-12-24T18:31:20.394Z,11.20
2023-12-24T18:32:52.503Z,11.30
2023-12-24T18:34:27.071Z,11.30
2023-12-24T18:36:00.819Z,11.30
2023-12-24T18:37:32.668Z,11.30
2023-12-24T18:39:04.541Z,11.30
2023-12-24T18:40:38.030Z,11.30
2023-12-24T18:42:09.764Z,11.30
2023-12-24T18:43:41.530Z,11.30
2023-12-24T18:45:13.426Z,11.30
2023-12-24T18:46:45.118Z,11.30
2023-12-24T18:48:17.105Z,11.30
2023-12-24T18:49:48.974Z,11.30
2023-12-24T18:51:22.436Z,11.30
2023-12-24T18:52:54.593Z,11.30
2023-12-24T18:54:26.583Z,11.30
2023-12-24T18:55:58.353Z,11.30
2023-12-24T18:57:30.053Z,11.30
2023-12-24T18:59:01.830Z,11.30
2023-12-24T19:00:33.810Z,11.30
2023-12-24T19:02:05.625Z,11.30
2023-12-24T19:03:37.667Z,11.30
2023-12-24T19:05:09.608Z,11.30
2023-12-24T19:06:41.517Z,11.30
2023-12-24T19:08:14.607Z,11.30
2023-12-24T19:09:46.384Z,11.30
2023-12-24T19:11:18.167Z,11.30
2023-12-24T19:12:50.271Z,11.30
2023-12-24T19:14:23.043Z,11.30
2023-12-24T19:15:54.794Z,11.30
2023-12-24T19:17:27.125Z,11.30
2023-12-24T19:18:59.154Z,11.30
2023-12-24T19:20:31.003Z,11.30
2023-12-24T19:22:04.794Z,11.30
2023-12-24T19:23:36.554Z,11.30
2023-12-24T19:25:08.626Z,11.30
2023-12-24T19:26:41.588Z,11.30
2023-12-24T19:28:13.809Z,11.30
2023-12-24T19:29:49.025Z,11.30
2023-12-24T19:31:22.739Z,11.30
2023-12-24T19:32:54.934Z,11.40
2023-12-24T19:34:26.996Z,11.30
2023-12-24T19:35:59.056Z,11.30
2023-12-24T19:37:30.861Z,11.30
2023-12-24T19:39:03.105Z,11.30
2023-12-24T19:40:34.874Z,11.30
2023-12-24T19:42:06.873Z,11.30
2023-12-24T19:43:38.588Z,11.40
2023-12-24T19:45:11.269Z,11.30
2023-12-24T19:46:43.153Z,11.30
2023-12-24T19:48:16.378Z,11.30
2023-12-24T19:49:48.970Z,11.30
2023-12-24T19:51:21.416Z,11.30
2023-12-24T19:52:53.348Z,11.30
2023-12-24T19:54:25.208Z,11.30
2023-12-24T19:55:56.972Z,11.30
2023-12-24T19:57:28.783Z,11.30
2023-12-24T19:59:00.514Z,11.30
2023-12-24T20:00:32.343Z,11.30
2023-12-24T20:02:04.240Z,11.30
2023-12-24T20:03:36.219Z,11.30
2023-12-24T20:05:10.929Z,11.30
2023-12-24T20:06:42.923Z,11.30
2023-12-24T20:08:14.792Z,11.30